createdAt,value
2022-11-25T00:01:05.624Z,96550.75
2022-11-25T00:03:32.161Z,96561.47
2022-11-25T00:06:07.344Z,96556.56
2022-11-25T00:08:33.759Z,96549.44
2022-11-25T00:11:03.585Z,96551.66
2022-11-25T00:13:30.009Z,96544.09
2022-11-25T00:15:56.572Z,96559.25
2022-11-25T00:18:23.060Z,96550.13
2022-11-25T00:20:49.498Z,96556.91
2022-11-25T00:23:15.901Z,96553.91
2022-11-25T00:25:42.340Z,96547.44
2022-11-25T00:28:08.812Z,96545.19
2022-11-25T00:30:36.098Z,96537.63
2022-11-25T00:33:03.215Z,96551.00
2022-11-25T00:35:29.727Z,96557.00
2022-11-25T00:37:56.117Z,96554.69
2022-11-25T00:40:22.542Z,96553.22
2022-11-25T00:43:07.602Z,96540.84
2022-11-25T00:45:34.060Z,96544.50
2022-11-25T00:48:00.492Z,96552.56
2022-11-25T00:50:26.938Z,96556.34
2022-11-25T00:52:53.344Z,96565.97
2022-11-25T00:55:19.755Z,96557.59
2022-11-25T00:57:46.336Z,96554.94
2022-11-25T01:00:13.016Z,96558.94
2022-11-25T01:02:39.992Z,96555.78
2022-11-25T01:05:06.774Z,96559.91
2022-11-25T01:07:33.254Z,96548.53
2022-11-25T01:09:59.839Z,96552.31
2022-11-25T01:12:26.209Z,96547.22
2022-11-25T01:14:52.610Z,96540.94
2022-11-25T01:17:18.991Z,96548.41
2022-11-25T01:19:45.716Z,96551.28
2022-11-25T01:22:12.112Z,96565.00
2022-11-25T01:24:38.754Z,96561.84
2022-11-25T01:27:05.376Z,96568.19
2022-11-25T01:29:31.844Z,96567.06
2022-11-25T01:31:58.332Z,96583.13
2022-11-25T01:34:26.416Z,96572.44
2022-11-25T01:36:52.982Z,96580.91
2022-11-25T01:39:21.122Z,96579.03
2022-11-25T01:41:47.949Z,96586.56
2022-11-25T01:44:15.990Z,96571.66
2022-11-25T01:46:42.336Z,96592.16
2022-11-25T01:49:12.713Z,96603.41
2022-11-25T01:51:52.282Z,96610.84
2022-11-25T01:54:22.120Z,96625.47
2022-11-25T01:56:55.986Z,96624.69
2022-11-25T01:59:23.119Z,96630.81
2022-11-25T02:01:50.034Z,96634.47
2022-11-25T02:04:18.587Z,96637.63
2022-11-25T02:06:51.876Z,96630.97
2022-11-25T02:09:19.224Z,96643.25
2022-11-25T02:11:47.540Z,96636.84
2022-11-25T02:14:15.424Z,96636.84
2022-11-25T02:16:42.348Z,96648.22
2022-11-25T02:19:15.594Z,96649.66
2022-11-25T02:21:51.034Z,96646.66
2022-11-25T02:24:47.450Z,96651.34
2022-11-25T02:27:14.516Z,96653.09
2022-11-25T02:29:43.483Z,96663.34
2022-11-25T02:32:12.784Z,96666.66
2022-11-25T02:34:48.580Z,96664.56
2022-11-25T02:37:17.557Z,96666.13
2022-11-25T02:39:44.765Z,96671.63
2022-11-25T02:42:11.307Z,96667.50
2022-11-25T02:44:37.937Z,96670.97
2022-11-25T02:47:06.217Z,96670.44
2022-11-25T02:49:32.572Z,96672.94
2022-11-25T02:51:59.012Z,96676.88
2022-11-25T02:54:25.372Z,96680.78
2022-11-25T02:56:51.822Z,96681.59
2022-11-25T02:59:18.292Z,96685.38
2022-11-25T03:01:44.807Z,96684.69
2022-11-25T03:04:11.284Z,96683.72
2022-11-25T03:06:37.670Z,96710.09
2022-11-25T03:09:05.148Z,96735.97
2022-11-25T03:12:03.761Z,96735.66
2022-11-25T03:14:30.205Z,96702.63
2022-11-25T03:16:56.656Z,96705.19
2022-11-25T03:19:23.187Z,96720.53
2022-11-25T03:21:49.557Z,96709.53
2022-11-25T03:24:15.916Z,96697.09
2022-11-25T03:26:42.370Z,96688.50
2022-11-25T03:29:08.839Z,96674.44
2022-11-25T03:31:35.321Z,96667.97
2022-11-25T03:34:02.560Z,96663.28
2022-11-25T03:36:29.000Z,96663.94
2022-11-25T03:38:55.360Z,96651.81
2022-11-25T03:41:21.759Z,96648.66
2022-11-25T03:43:49.000Z,96646.94
2022-11-25T03:46:15.826Z,96643.00
2022-11-25T03:48:42.758Z,96628.66
2022-11-25T03:51:09.201Z,96614.72
2022-11-25T03:53:35.900Z,96611.41
2022-11-25T03:56:02.329Z,96610.97
2022-11-25T03:58:28.725Z,96612.44
2022-11-25T04:00:55.197Z,96612.44
2022-11-25T04:03:21.777Z,96609.63
2022-11-25T04:05:48.319Z,96610.41
2022-11-25T04:08:14.802Z,96604.25
2022-11-25T04:10:41.237Z,96608.84
2022-11-25T04:13:07.639Z,96619.06
2022-11-25T04:15:34.142Z,96613.53
2022-11-25T04:18:00.533Z,96597.38
2022-11-25T04:20:27.482Z,96598.53
2022-11-25T04:22:53.845Z,96603.31
2022-11-25T04:25:20.324Z,96595.91
2022-11-25T04:27:46.966Z,96608.84
2022-11-25T04:30:13.463Z,96619.38
2022-11-25T04:32:40.081Z,96623.97
2022-11-25T04:35:07.518Z,96616.84
2022-11-25T04:37:33.936Z,96603.38
2022-11-25T04:40:02.307Z,96607.16
2022-11-25T04:42:33.364Z,96623.56
2022-11-25T04:45:21.989Z,96621.91
2022-11-25T04:47:48.757Z,96634.03
2022-11-25T04:50:18.758Z,96625.72
2022-11-25T04:52:45.262Z,96627.44
2022-11-25T04:55:11.935Z,96619.25
2022-11-25T04:57:38.296Z,96617.72
2022-11-25T05:00:05.536Z,96617.31
2022-11-25T05:02:32.106Z,96624.09
2022-11-25T05:04:58.838Z,96624.44
2022-11-25T05:07:28.050Z,96622.75
2022-11-25T05:09:54.870Z,96623.66
2022-11-25T05:12:22.830Z,96624.97
2022-11-25T05:14:49.426Z,96614.19
2022-11-25T05:17:20.273Z,96605.50
2022-11-25T05:19:50.317Z,96613.56
2022-11-25T05:22:18.310Z,96612.47
2022-11-25T05:24:44.916Z,96606.66
2022-11-25T05:27:11.642Z,96604.75
2022-11-25T05:29:38.388Z,96606.34
2022-11-25T05:32:06.752Z,96601.34
2022-11-25T05:34:33.302Z,96601.53
2022-11-25T05:36:59.980Z,96596.91
2022-11-25T05:39:28.357Z,96602.31
2022-11-25T05:41:56.693Z,96598.84
2022-11-25T05:44:24.702Z,96604.84
2022-11-25T05:46:51.380Z,96601.22
2022-11-25T05:49:18.230Z,96605.13
2022-11-25T05:51:44.957Z,96592.44
2022-11-25T05:54:11.820Z,96583.78
2022-11-25T05:56:38.887Z,96587.88
2022-11-25T05:59:05.411Z,96593.56
2022-11-25T06:01:32.257Z,96595.00
2022-11-25T06:04:02.391Z,96595.16
2022-11-25T06:06:29.325Z,96596.28
2022-11-25T06:08:56.070Z,96590.28
2022-11-25T06:11:24.794Z,96570.72
2022-11-25T06:13:51.371Z,96576.31
2022-11-25T06:16:19.314Z,96583.78
2022-11-25T06:18:45.891Z,96592.78
2022-11-25T06:21:12.425Z,96594.53
2022-11-25T06:23:39.278Z,96608.53
2022-11-25T06:26:06.933Z,96623.66
2022-11-25T06:28:33.840Z,96621.19
2022-11-25T06:31:08.771Z,96639.00
2022-11-25T06:33:37.188Z,96643.69
2022-11-25T06:36:04.873Z,96628.22
2022-11-25T06:38:31.420Z,96623.78
2022-11-25T06:41:04.784Z,96628.34
2022-11-25T06:43:31.844Z,96639.53
2022-11-25T06:46:05.641Z,96631.59
2022-11-25T06:48:32.191Z,96646.44
2022-11-25T06:51:03.081Z,96644.34
2022-11-25T06:53:32.035Z,96651.13
2022-11-25T06:56:01.817Z,96652.53
2022-11-25T06:58:36.713Z,96661.63
2022-11-25T07:01:04.925Z,96663.53
2022-11-25T07:03:31.367Z,96669.59
2022-11-25T07:05:58.402Z,96671.50
2022-11-25T07:08:32.412Z,96670.22
2022-11-25T07:11:20.593Z,96685.63
2022-11-25T07:13:47.804Z,96685.47
2022-11-25T07:16:14.607Z,96687.16
2022-11-25T07:18:41.404Z,96703.59
2022-11-25T07:21:18.372Z,96721.00
2022-11-25T07:23:45.721Z,96739.44
2022-11-25T07:26:13.430Z,96741.31
2022-11-25T07:28:40.174Z,96745.22
2022-11-25T07:31:28.626Z,96759.81
2022-11-25T07:33:59.925Z,96754.19
2022-11-25T07:36:26.858Z,96740.28
2022-11-25T07:38:53.615Z,96734.16
2022-11-25T07:41:21.316Z,96746.63
2022-11-25T07:43:48.995Z,96744.13
2022-11-25T07:46:25.037Z,96742.38
2022-11-25T07:48:53.700Z,96737.03
2022-11-25T07:51:20.060Z,96737.19
2022-11-25T07:53:47.308Z,96731.38
2022-11-25T07:56:16.383Z,96734.22
2022-11-25T07:58:46.019Z,96713.91
2022-11-25T08:01:13.268Z,96712.97
2022-11-25T08:03:41.541Z,96709.34
2022-11-25T08:06:09.265Z,96701.16
2022-11-25T08:08:38.605Z,96698.81
2022-11-25T08:11:08.697Z,96694.22
2022-11-25T08:13:35.159Z,96696.59
2022-11-25T08:16:01.611Z,96685.56
2022-11-25T08:18:28.471Z,96697.84
2022-11-25T08:21:02.117Z,96692.03
2022-11-25T08:23:28.561Z,96676.75
2022-11-25T08:25:55.175Z,96683.19
2022-11-25T08:28:21.732Z,96674.81
2022-11-25T08:30:49.409Z,96674.81
2022-11-25T08:33:15.948Z,96672.50
2022-11-25T08:35:42.336Z,96655.59
2022-11-25T08:38:15.662Z,96658.19
2022-11-25T08:40:46.702Z,96659.50
2022-11-25T08:43:13.397Z,96670.84
2022-11-25T08:45:40.360Z,96678.41
2022-11-25T08:48:06.885Z,96666.69
2022-11-25T08:50:33.357Z,96677.88
2022-11-25T08:53:00.585Z,96683.72
2022-11-25T08:55:27.391Z,96693.84
2022-11-25T08:57:54.383Z,96690.50
2022-11-25T09:00:21.333Z,96698.88
2022-11-25T09:02:48.262Z,96682.72
2022-11-25T09:05:15.777Z,96686.00
2022-11-25T09:07:42.678Z,96699.75
2022-11-25T09:10:13.342Z,96706.22
2022-11-25T09:12:39.709Z,96716.91
2022-11-25T09:15:06.391Z,96721.81
2022-11-25T09:17:35.441Z,96727.00
2022-11-25T09:20:01.800Z,96740.72
2022-11-25T09:22:28.179Z,96737.22
2022-11-25T09:24:54.617Z,96734.94
2022-11-25T09:27:21.089Z,96747.56
2022-11-25T09:29:47.514Z,96761.16
2022-11-25T09:32:15.669Z,96770.16
2022-11-25T09:34:42.083Z,96774.06
2022-11-25T09:37:08.460Z,96766.75
2022-11-25T09:39:35.689Z,96763.28
2022-11-25T09:42:39.285Z,96769.28
2022-11-25T09:45:43.262Z,96781.28
2022-11-25T09:48:12.550Z,96761.50
2022-11-25T09:50:48.004Z,96778.72
2022-11-25T09:53:34.652Z,96796.72
2022-11-25T09:56:03.256Z,96805.84
2022-11-25T09:58:35.311Z,96785.94
2022-11-25T10:01:06.258Z,96804.72
2022-11-25T10:03:38.989Z,96842.41
2022-11-25T10:06:14.898Z,96841.16
2022-11-25T10:08:46.594Z,96847.28
2022-11-25T10:11:19.150Z,96837.00
2022-11-25T10:13:49.513Z,96863.19
2022-11-25T10:16:44.957Z,96868.72
2022-11-25T10:19:36.902Z,96866.97
2022-11-25T10:22:12.205Z,96857.50
2022-11-25T10:24:41.417Z,96877.03
2022-11-25T10:27:15.008Z,96884.94
2022-11-25T10:29:42.069Z,96891.56
2022-11-25T10:32:22.225Z,96865.06
2022-11-25T10:34:54.163Z,96875.94
2022-11-25T10:37:29.277Z,96879.56
2022-11-25T10:39:55.719Z,96884.63
2022-11-25T10:42:23.415Z,96881.28
2022-11-25T10:44:49.963Z,96887.44
2022-11-25T10:47:31.723Z,96896.25
2022-11-25T10:50:01.316Z,96911.56
2022-11-25T10:52:34.483Z,96909.34
2022-11-25T10:55:15.001Z,96907.75
2022-11-25T10:57:41.880Z,96922.88
2022-11-25T11:00:23.750Z,96928.25
2022-11-25T11:02:50.248Z,96920.50
2022-11-25T11:05:23.331Z,96906.41
2022-11-25T11:08:08.521Z,96907.03
2022-11-25T11:10:36.948Z,96899.88
2022-11-25T11:13:04.690Z,96897.59
2022-11-25T11:15:46.642Z,96906.75
2022-11-25T11:18:18.913Z,96902.78
2022-11-25T11:20:47.228Z,96909.72
2022-11-25T11:23:14.270Z,96917.13
2022-11-25T11:25:41.852Z,96912.06
2022-11-25T11:28:33.256Z,96918.66
2022-11-25T11:31:04.345Z,96922.13
2022-11-25T11:33:50.072Z,96926.84
2022-11-25T11:36:22.641Z,96931.63
2022-11-25T11:39:01.540Z,96931.72
2022-11-25T11:41:39.934Z,96944.25
2022-11-25T11:44:17.624Z,96948.81
2022-11-25T11:46:53.893Z,96944.25
2022-11-25T11:49:20.361Z,96947.81
2022-11-25T11:52:01.448Z,96960.97
2022-11-25T11:54:49.997Z,96971.69
2022-11-25T11:57:16.340Z,96968.53
2022-11-25T11:59:46.193Z,96971.69
2022-11-25T12:02:22.386Z,96984.34
2022-11-25T12:04:55.986Z,96994.78
2022-11-25T12:07:44.809Z,97009.28
2022-11-25T12:10:20.194Z,97005.03
2022-11-25T12:12:57.845Z,97003.47
2022-11-25T12:15:42.822Z,97010.88
2022-11-25T12:18:32.594Z,97013.22
2022-11-25T12:21:01.981Z,97022.03
2022-11-25T12:23:37.377Z,97026.94
2022-11-25T12:26:13.076Z,97032.31
2022-11-25T12:28:43.934Z,97032.31
2022-11-25T12:31:18.195Z,97038.31
2022-11-25T12:33:49.278Z,97045.88
2022-11-25T12:36:18.630Z,97038.13
2022-11-25T12:38:54.523Z,97034.00
2022-11-25T12:41:20.889Z,97038.59
2022-11-25T12:43:47.249Z,97031.66
2022-11-25T12:46:19.205Z,97034.00
2022-11-25T12:48:47.321Z,97032.00
2022-11-25T12:51:28.728Z,97028.19
2022-11-25T12:53:58.190Z,97026.28
2022-11-25T12:56:27.759Z,97025.97
2022-11-25T12:59:09.991Z,97018.09
2022-11-25T13:01:47.828Z,97017.44
2022-11-25T13:04:26.692Z,97011.44
2022-11-25T13:06:53.096Z,97010.81
2022-11-25T13:09:19.442Z,97001.94
2022-11-25T13:11:48.125Z,97005.72
2022-11-25T13:14:32.821Z,97005.88
2022-11-25T13:17:00.504Z,97015.38
2022-11-25T13:19:27.403Z,97023.13
2022-11-25T13:22:02.521Z,97030.06
2022-11-25T13:24:43.878Z,97045.72
2022-11-25T13:27:28.876Z,97041.47
2022-11-25T13:29:55.495Z,97048.09
2022-11-25T13:32:26.032Z,97062.59
2022-11-25T13:35:12.356Z,97064.66
2022-11-25T13:37:42.434Z,97079.16
2022-11-25T13:40:24.025Z,97084.06
2022-11-25T13:42:51.684Z,97078.38
2022-11-25T13:45:38.208Z,97096.97
2022-11-25T13:48:06.908Z,97102.31
2022-11-25T13:50:55.294Z,97096.16
2022-11-25T13:53:22.715Z,97100.75
2022-11-25T13:55:55.043Z,97109.75
2022-11-25T13:58:25.852Z,97110.03
2022-11-25T14:00:59.876Z,97113.50
2022-11-25T14:03:29.378Z,97119.16
2022-11-25T14:06:05.417Z,97138.22
2022-11-25T14:08:37.969Z,97135.53
2022-11-25T14:11:07.097Z,97132.84
2022-11-25T14:13:52.282Z,97138.22
2022-11-25T14:16:37.480Z,97147.94
2022-11-25T14:19:43.373Z,97139.91
2022-11-25T14:22:14.981Z,97148.09
2022-11-25T14:24:59.834Z,97163.34
2022-11-25T14:27:27.617Z,97176.84
2022-11-25T14:29:54.145Z,97178.69
2022-11-25T14:32:43.981Z,97189.56
2022-11-25T14:35:14.572Z,97178.69
2022-11-25T14:37:44.804Z,97182.00
2022-11-25T14:40:17.374Z,97183.09
2022-11-25T14:42:49.082Z,97182.31
2022-11-25T14:45:21.707Z,97181.03
2022-11-25T14:47:48.331Z,97185.31
2022-11-25T14:53:05.296Z,97181.25
2022-11-25T14:55:31.946Z,97178.25
2022-11-25T14:57:58.416Z,97184.72
2022-11-25T15:00:25.045Z,97179.84
2022-11-25T15:02:53.329Z,97182.81
2022-11-25T15:05:21.240Z,97180.75
2022-11-25T15:07:56.756Z,97183.59
2022-11-25T15:10:41.578Z,97189.41
2022-11-25T15:13:34.662Z,97189.25
2022-11-25T15:16:14.800Z,97184.69
2022-11-25T15:18:51.853Z,97187.38
2022-11-25T15:21:20.714Z,97190.66
2022-11-25T15:23:47.202Z,97199.78
2022-11-25T15:26:19.154Z,97188.47
2022-11-25T15:28:46.022Z,97198.06
2022-11-25T15:31:17.460Z,97193.16
2022-11-25T15:33:44.820Z,97193.16
2022-11-25T15:36:11.686Z,97194.75
2022-11-25T15:38:41.531Z,97192.56
2022-11-25T15:41:34.154Z,97193.53
2022-11-25T15:44:05.534Z,97247.53
2022-11-25T15:46:33.823Z,97259.84
2022-11-25T15:49:02.035Z,97241.75
2022-11-25T15:51:31.641Z,97230.03
2022-11-25T15:54:03.316Z,97217.31
2022-11-25T15:56:32.223Z,97212.91
2022-11-25T15:59:01.667Z,97210.72
2022-11-25T16:01:29.295Z,97205.72
2022-11-25T16:04:09.333Z,97192.84
2022-11-25T16:06:35.764Z,97200.25
2022-11-25T16:09:03.884Z,97183.44
2022-11-25T16:11:33.612Z,97187.09
2022-11-25T16:14:24.093Z,97183.19
2022-11-25T16:16:50.883Z,97203.00
2022-11-25T16:19:19.012Z,97204.53
2022-11-25T16:21:53.229Z,97190.56
2022-11-25T16:24:38.667Z,97179.22
2022-11-25T16:27:07.114Z,97175.38
2022-11-25T16:29:35.643Z,97156.28
2022-11-25T16:32:13.001Z,97151.16
2022-11-25T16:34:39.755Z,97159.28
2022-11-25T16:37:06.341Z,97151.78
2022-11-25T16:39:37.036Z,97155.22
2022-11-25T16:42:04.586Z,97171.75
2022-11-25T16:44:32.874Z,97146.69
2022-11-25T16:46:59.551Z,97153.16
2022-11-25T16:49:26.609Z,97146.00
2022-11-25T16:51:53.169Z,97128.78
2022-11-25T16:54:20.209Z,97123.72
2022-11-25T16:56:48.301Z,97112.06
2022-11-25T16:59:25.572Z,97086.97
2022-11-25T17:01:52.824Z,97080.66
2022-11-25T17:04:19.404Z,97073.72
2022-11-25T17:07:09.566Z,97055.22
2022-11-25T17:09:33.166Z,97057.69
2022-11-25T17:11:59.595Z,97042.16
2022-11-25T17:14:30.894Z,97034.16
2022-11-25T17:16:58.439Z,97029.56
2022-11-25T17:19:25.090Z,97016.06
2022-11-25T17:21:51.658Z,97004.13
2022-11-25T17:24:22.237Z,97010.56
2022-11-25T17:26:50.783Z,97013.84
2022-11-25T17:29:18.341Z,96999.41
2022-11-25T17:31:46.711Z,97010.25
2022-11-25T17:34:15.305Z,97021.03
2022-11-25T17:36:42.518Z,97018.25
2022-11-25T17:39:10.546Z,97031.72
2022-11-25T17:41:40.781Z,97032.03
2022-11-25T17:44:10.626Z,97026.28
2022-11-25T17:46:37.038Z,97038.66
2022-11-25T17:49:03.445Z,97031.28
2022-11-25T17:51:29.871Z,97019.84
2022-11-25T17:53:56.308Z,97024.38
2022-11-25T17:56:28.313Z,97020.94
2022-11-25T17:58:55.443Z,97020.28
2022-11-25T18:01:21.939Z,97026.41
2022-11-25T18:03:53.025Z,97020.94
2022-11-25T18:06:19.806Z,97025.63
2022-11-25T18:08:46.182Z,97030.81
2022-11-25T18:11:16.872Z,97030.53
2022-11-25T18:13:44.422Z,97034.31
2022-11-25T18:16:13.091Z,97040.91
2022-11-25T18:18:39.550Z,97028.66
2022-11-25T18:21:06.007Z,97036.19
2022-11-25T18:23:32.430Z,97037.91
2022-11-25T18:26:00.988Z,97025.38
2022-11-25T18:28:29.551Z,97027.38
2022-11-25T18:31:01.529Z,97025.50
2022-11-25T18:33:28.018Z,97022.84
2022-11-25T18:35:54.467Z,97022.66
2022-11-25T18:38:20.905Z,97013.88
2022-11-25T18:40:53.086Z,97012.59
2022-11-25T18:43:25.091Z,97014.63
2022-11-25T18:45:52.629Z,97006.47
2022-11-25T18:48:20.577Z,97004.59
2022-11-25T18:50:49.174Z,97016.19
2022-11-25T18:53:15.953Z,97017.66
2022-11-25T18:55:42.920Z,97035.84
2022-11-25T18:58:14.465Z,97054.53
2022-11-25T19:00:40.949Z,97046.59
2022-11-25T19:03:13.764Z,97077.19
2022-11-25T19:05:40.204Z,97084.34
2022-11-25T19:08:06.642Z,97075.31
2022-11-25T19:10:37.364Z,97095.22
2022-11-25T19:13:07.102Z,97075.78
2022-11-25T19:15:35.056Z,97065.78
2022-11-25T19:18:02.515Z,97059.19
2022-11-25T19:20:30.310Z,97054.63
2022-11-25T19:23:00.833Z,97041.41
2022-11-25T19:25:28.008Z,97052.38
2022-11-25T19:27:57.112Z,97041.84
2022-11-25T19:30:25.114Z,97041.88
2022-11-25T19:32:54.121Z,97035.72
2022-11-25T19:35:24.917Z,97032.13
2022-11-25T19:37:51.553Z,97021.59
2022-11-25T19:40:19.528Z,97021.44
2022-11-25T19:42:48.220Z,97016.56
2022-11-25T19:45:19.093Z,97019.09
2022-11-25T19:47:46.692Z,97034.75
2022-11-25T19:50:20.842Z,97027.91
2022-11-25T19:52:47.445Z,97032.91
2022-11-25T19:55:15.149Z,97040.59
2022-11-25T19:57:41.699Z,97044.53
2022-11-25T20:00:09.188Z,97035.09
2022-11-25T20:02:35.733Z,97069.00
2022-11-25T20:05:03.428Z,97083.75
2022-11-25T20:07:32.849Z,97070.13
2022-11-25T20:10:06.609Z,97069.34
2022-11-25T20:12:33.080Z,97074.97
2022-11-25T20:14:59.529Z,97075.31
2022-11-25T20:17:28.539Z,97067.50
2022-11-25T20:19:57.198Z,97079.09
2022-11-25T20:22:29.018Z,97089.44
2022-11-25T20:24:55.754Z,97070.66
2022-11-25T20:27:26.289Z,97076.63
2022-11-25T20:29:52.802Z,97080.53
2022-11-25T20:32:25.826Z,97065.16
2022-11-25T20:34:52.194Z,97057.59
2022-11-25T20:37:23.756Z,97074.25
2022-11-25T20:39:51.954Z,97086.63
2022-11-25T20:42:18.773Z,97079.78
2022-11-25T20:44:45.649Z,97083.69
2022-11-25T20:47:21.851Z,97096.53
2022-11-25T20:49:48.524Z,97100.47
2022-11-25T20:52:17.929Z,97106.66
2022-11-25T20:54:44.327Z,97119.34
2022-11-25T20:57:10.772Z,97123.84
2022-11-25T20:59:37.193Z,97118.09
2022-11-25T21:02:03.810Z,97124.25
2022-11-25T21:04:30.296Z,97123.72
2022-11-25T21:06:56.817Z,97135.03
2022-11-25T21:09:25.119Z,97128.19
2022-11-25T21:11:51.594Z,97145.72
2022-11-25T21:14:19.365Z,97147.44
2022-11-25T21:16:46.815Z,97125.81
2022-11-25T21:19:13.337Z,97126.63
2022-11-25T21:21:41.697Z,97126.59
2022-11-25T21:24:15.753Z,97123.13
2022-11-25T21:26:42.158Z,97101.81
2022-11-25T21:29:13.582Z,97108.72
2022-11-25T21:31:41.347Z,97101.94
2022-11-25T21:34:09.711Z,97101.97
2022-11-25T21:36:36.297Z,97104.47
2022-11-25T21:39:07.969Z,97116.97
2022-11-25T21:41:35.474Z,97114.00
2022-11-25T21:44:04.380Z,97106.19
2022-11-25T21:46:30.865Z,97093.47
2022-11-25T21:48:57.289Z,97091.28
2022-11-25T21:51:27.261Z,97082.91
2022-11-25T21:53:54.025Z,97072.25
2022-11-25T21:56:25.003Z,97086.06
2022-11-25T21:58:51.585Z,97085.13
2022-11-25T22:01:18.213Z,97070.38
2022-11-25T22:03:44.609Z,97064.41
2022-11-25T22:06:29.682Z,97064.88
2022-11-25T22:08:56.772Z,97059.72
2022-11-25T22:11:31.300Z,97064.41
2022-11-25T22:13:57.977Z,97078.41
2022-11-25T22:16:34.709Z,97080.28
2022-11-25T22:19:01.304Z,97074.03
2022-11-25T22:21:27.798Z,97083.13
2022-11-25T22:23:54.267Z,97093.97
2022-11-25T22:26:24.065Z,97082.34
2022-11-25T22:28:51.570Z,97078.94
2022-11-25T22:31:19.183Z,97086.03
2022-11-25T22:33:46.795Z,97079.59
2022-11-25T22:36:25.037Z,97083.97
2022-11-25T22:38:51.393Z,97100.34
2022-11-25T22:41:17.796Z,97105.22
2022-11-25T22:43:47.157Z,97089.31
2022-11-25T22:46:13.602Z,97088.72
2022-11-25T22:48:40.226Z,97095.16
2022-11-25T22:51:14.118Z,97093.13
2022-11-25T22:53:40.650Z,97090.16
2022-11-25T22:56:15.164Z,97102.88
2022-11-25T22:58:41.627Z,97126.13
2022-11-25T23:01:08.946Z,97127.84
2022-11-25T23:03:35.440Z,97130.88
2022-11-25T23:06:03.238Z,97135.13
2022-11-25T23:08:31.625Z,97142.97
2022-11-25T23:10:59.776Z,97156.97
2022-11-25T23:13:26.269Z,97156.69
2022-11-25T23:15:54.240Z,97156.41
2022-11-25T23:18:25.957Z,97154.84
2022-11-25T23:20:52.417Z,97163.97
2022-11-25T23:23:28.848Z,97156.72
2022-11-25T23:25:55.924Z,97157.69
2022-11-25T23:28:22.829Z,97161.50
2022-11-25T23:30:51.243Z,97166.09
2022-11-25T23:33:20.881Z,97156.16
2022-11-25T23:35:47.408Z,97154.94
2022-11-25T23:38:18.159Z,97163.88
2022-11-25T23:40:44.573Z,97177.53
2022-11-25T23:43:14.947Z,97182.09
2022-11-25T23:45:47.796Z,97178.03
2022-11-25T23:48:14.262Z,97175.38
2022-11-25T23:50:40.804Z,97166.88
2022-11-25T23:53:10.729Z,97173.50
2022-11-25T23:55:38.393Z,97175.59
2022-11-25T23:58:13.952Z,97181.78
